createdAt,value
2023-07-09T00:00:48.450Z,31.13
2023-07-09T00:06:59.398Z,32.55
2023-07-09T00:13:04.605Z,30.25
2023-07-09T00:19:14.913Z,30.23
2023-07-09T00:25:18.948Z,29.13
2023-07-09T00:31:24.504Z,27.75
2023-07-09T00:37:29.349Z,27.55
2023-07-09T00:43:34.538Z,28.17
2023-07-09T00:49:43.203Z,28.55
2023-07-09T00:55:48.912Z,27.70
2023-07-09T01:01:52.789Z,28.13
2023-07-09T01:07:59.744Z,27.27
2023-07-09T01:14:04.918Z,25.45
2023-07-09T01:20:13.748Z,26.90
2023-07-09T01:26:20.144Z,24.55
2023-07-09T01:32:24.252Z,26.73
2023-07-09T01:38:31.590Z,26.05
2023-07-09T01:44:36.797Z,26.45
2023-07-09T01:50:42.597Z,23.75
2023-07-09T01:56:46.302Z,22.90
2023-07-09T02:02:51.549Z,22.00
2023-07-09T02:08:55.370Z,21.63
2023-07-09T02:14:59.121Z,21.65
2023-07-09T02:21:04.136Z,21.75
2023-07-09T02:27:10.900Z,22.23
2023-07-09T02:33:14.386Z,19.60
2023-07-09T02:39:19.421Z,18.83
2023-07-09T02:45:23.071Z,20.23
2023-07-09T02:51:28.093Z,19.50
2023-07-09T02:57:33.010Z,19.13
2023-07-09T03:03:36.585Z,17.67
2023-07-09T03:09:40.210Z,17.13
2023-07-09T03:15:45.164Z,18.67
2023-07-09T03:21:48.765Z,18.73
2023-07-09T03:27:52.351Z,18.85
2023-07-09T03:33:57.383Z,19.30
2023-07-09T03:40:00.959Z,17.42
2023-07-09T03:46:04.731Z,17.48
2023-07-09T03:52:10.357Z,20.20
2023-07-09T03:58:13.910Z,18.70
2023-07-09T04:04:21.562Z,21.27
2023-07-09T04:10:26.956Z,22.75
2023-07-09T04:16:30.638Z,23.55
2023-07-09T04:22:34.240Z,22.90
2023-07-09T04:28:39.115Z,26.08
2023-07-09T04:34:42.785Z,24.02
2023-07-09T04:40:46.281Z,23.02
2023-07-09T04:46:51.489Z,22.80
2023-07-09T04:52:55.034Z,20.77
2023-07-09T04:58:58.632Z,22.77
2023-07-09T05:05:03.694Z,20.02
2023-07-09T05:11:07.175Z,18.38
2023-07-09T05:17:10.864Z,16.20
2023-07-09T05:23:15.698Z,13.90
2023-07-09T05:29:19.286Z,12.70
2023-07-09T05:35:22.893Z,10.60
2023-07-09T05:41:28.248Z,9.43
2023-07-09T05:47:31.776Z,7.40
2023-07-09T05:53:35.542Z,7.10
2023-07-09T05:59:40.536Z,7.60
2023-07-09T06:05:44.684Z,7.20
2023-07-09T06:11:48.454Z,6.95
2023-07-09T06:17:53.576Z,7.03
2023-07-09T06:23:57.060Z,6.30
2023-07-09T06:30:00.560Z,7.18
2023-07-09T06:36:06.340Z,6.85
2023-07-09T06:42:10.063Z,5.40
2023-07-09T06:48:15.847Z,6.07
2023-07-09T06:54:20.821Z,5.53
2023-07-09T07:00:24.577Z,3.45
2023-07-09T07:06:36.599Z,4.25
2023-07-09T07:12:46.975Z,3.38
2023-07-09T07:18:53.192Z,2.80
2023-07-09T07:24:56.934Z,3.50
2023-07-09T07:31:02.950Z,5.25
2023-07-09T07:37:07.207Z,3.83
2023-07-09T07:43:10.691Z,3.92
2023-07-09T07:49:15.534Z,3.83
2023-07-09T07:55:20.730Z,4.63
2023-07-09T08:01:24.309Z,4.85
2023-07-09T08:07:30.216Z,3.97
2023-07-09T08:13:34.819Z,4.22
2023-07-09T08:19:47.326Z,3.90
2023-07-09T08:25:56.811Z,5.30
2023-07-09T08:32:00.318Z,4.20
2023-07-09T08:38:04.060Z,4.80
2023-07-09T08:44:14.824Z,4.30
2023-07-09T08:50:21.216Z,3.70
2023-07-09T08:56:24.867Z,3.13
2023-07-09T09:02:36.133Z,3.38
2023-07-09T09:08:41.810Z,3.50
2023-07-09T09:14:46.299Z,3.88
2023-07-09T09:20:57.769Z,3.13
2023-07-09T09:27:01.939Z,3.13
2023-07-09T09:33:12.521Z,3.38
2023-07-09T09:39:19.206Z,3.45
2023-07-09T09:45:24.274Z,3.17
2023-07-09T09:51:27.972Z,3.22
2023-07-09T09:57:32.927Z,3.85
2023-07-09T10:03:43.875Z,4.07
2023-07-09T10:09:50.358Z,6.00
2023-07-09T10:16:02.895Z,6.47
2023-07-09T10:22:08.040Z,7.32
2023-07-09T10:28:28.848Z,6.55
2023-07-09T10:34:40.773Z,6.82
2023-07-09T10:40:46.313Z,7.80
2023-07-09T10:46:55.113Z,10.15
2023-07-09T10:53:05.410Z,8.70
2023-07-09T10:59:14.337Z,7.13
2023-07-09T11:05:18.110Z,6.38
2023-07-09T11:11:27.527Z,5.63
2023-07-09T11:17:32.476Z,6.53
2023-07-09T11:23:46.970Z,5.28
2023-07-09T11:29:58.602Z,5.72
2023-07-09T11:36:09.876Z,6.00
2023-07-09T11:42:33.383Z,5.65
2023-07-09T11:48:38.410Z,5.95
2023-07-09T11:54:41.937Z,6.10
2023-07-09T12:00:46.822Z,7.28
2023-07-09T12:06:51.955Z,6.13
2023-07-09T12:12:59.111Z,4.90
2023-07-09T12:19:02.593Z,5.25
2023-07-09T12:25:21.313Z,4.70
2023-07-09T12:31:28.822Z,4.43
2023-07-09T12:37:34.060Z,4.60
2023-07-09T12:43:38.979Z,4.40
2023-07-09T12:49:44.053Z,3.55
2023-07-09T12:55:50.258Z,3.47
2023-07-09T13:02:03.701Z,3.78
2023-07-09T13:08:07.418Z,3.95
2023-07-09T13:14:19.089Z,4.55
2023-07-09T13:20:31.621Z,3.90
2023-07-09T13:26:41.221Z,3.75
2023-07-09T13:32:52.626Z,2.42
2023-07-09T13:38:57.991Z,3.10
2023-07-09T13:45:03.921Z,2.65
2023-07-09T13:51:18.672Z,2.45
2023-07-09T13:57:25.782Z,2.10
2023-07-09T14:03:32.422Z,2.00
2023-07-09T14:09:40.322Z,1.83
2023-07-09T14:15:47.433Z,2.08
2023-07-09T14:21:51.701Z,2.20
2023-07-09T14:27:58.538Z,1.88
2023-07-09T14:34:25.023Z,2.08
2023-07-09T14:40:32.110Z,2.05
2023-07-09T14:46:37.216Z,1.88
2023-07-09T14:52:43.491Z,1.48
2023-07-09T14:58:51.413Z,1.67
2023-07-09T15:04:57.936Z,1.38
2023-07-09T15:11:05.149Z,1.90
2023-07-09T15:17:08.943Z,1.75
2023-07-09T15:23:15.247Z,1.50
2023-07-09T15:29:20.320Z,1.60
2023-07-09T15:35:29.802Z,1.40
2023-07-09T15:41:42.253Z,1.48
2023-07-09T15:47:49.195Z,1.08
2023-07-09T15:53:52.696Z,1.25
2023-07-09T15:59:58.945Z,1.02
2023-07-09T16:06:05.002Z,1.60
2023-07-09T16:12:14.790Z,1.70
2023-07-09T16:18:19.058Z,1.92
2023-07-09T16:24:25.929Z,1.83
2023-07-09T16:30:30.587Z,1.83
2023-07-09T16:36:34.842Z,1.52
2023-07-09T16:42:42.397Z,1.27
2023-07-09T16:48:47.500Z,1.35
2023-07-09T16:54:52.488Z,1.30
2023-07-09T17:00:58.881Z,1.60
2023-07-09T17:07:04.276Z,1.42
2023-07-09T17:13:15.125Z,1.20
2023-07-09T17:19:24.708Z,1.58
2023-07-09T17:25:33.430Z,1.55
2023-07-09T17:31:40.227Z,1.65
2023-07-09T17:37:54.503Z,1.73
2023-07-09T17:43:58.381Z,1.50
2023-07-09T17:50:03.532Z,1.48
2023-07-09T17:56:21.841Z,1.60
2023-07-09T18:02:36.942Z,1.30
2023-07-09T18:08:41.762Z,1.65
2023-07-09T18:14:49.023Z,1.70
2023-07-09T18:20:53.183Z,1.65
2023-07-09T18:26:57.504Z,1.73
2023-07-09T18:33:03.886Z,1.42
2023-07-09T18:39:07.389Z,1.35
2023-07-09T18:45:15.390Z,1.40
2023-07-09T18:51:20.291Z,1.63
2023-07-09T18:57:23.851Z,1.50
2023-07-09T19:03:30.050Z,1.45
2023-07-09T19:09:35.281Z,1.52
2023-07-09T19:15:39.962Z,1.42
2023-07-09T19:21:43.571Z,1.52
2023-07-09T19:27:48.976Z,1.25
2023-07-09T19:33:52.480Z,1.67
2023-07-09T19:39:56.214Z,1.40
2023-07-09T19:46:04.124Z,1.20
2023-07-09T19:52:12.837Z,1.27
2023-07-09T19:58:16.682Z,1.00
2023-07-09T20:04:21.621Z,2.65
2023-07-09T20:10:25.133Z,1.70
2023-07-09T20:16:30.445Z,1.25
2023-07-09T20:22:35.615Z,1.25
2023-07-09T20:28:39.356Z,1.45
2023-07-09T20:34:42.932Z,1.70
2023-07-09T20:40:48.390Z,1.30
2023-07-09T20:46:51.992Z,1.38
2023-07-09T20:52:55.731Z,1.95
2023-07-09T20:59:00.562Z,1.70
2023-07-09T21:05:04.003Z,1.55
2023-07-09T21:11:07.823Z,1.55
2023-07-09T21:17:16.820Z,1.77
2023-07-09T21:23:21.227Z,2.03
2023-07-09T21:29:24.995Z,1.80
2023-07-09T21:35:30.078Z,2.10
2023-07-09T21:41:33.526Z,1.70
2023-07-09T21:47:37.037Z,2.22
2023-07-09T21:59:49.987Z,2.03
2023-07-09T22:05:53.564Z,1.88
2023-07-09T22:11:58.722Z,2.17
2023-07-09T22:18:02.890Z,2.30
2023-07-09T22:24:06.584Z,2.03
2023-07-09T22:30:12.924Z,2.20
2023-07-09T22:36:16.370Z,2.22
2023-07-09T22:42:20.355Z,2.10
2023-07-09T22:48:25.328Z,2.38
2023-07-09T22:54:29.107Z,2.08
2023-07-09T23:00:35.272Z,2.53
2023-07-09T23:06:40.256Z,2.38
2023-07-09T23:12:43.758Z,2.65
2023-07-09T23:18:47.883Z,3.08
2023-07-09T23:24:52.741Z,2.40
2023-07-09T23:30:56.232Z,3.10
2023-07-09T23:36:59.741Z,3.30
2023-07-09T23:43:04.727Z,2.53
2023-07-09T23:49:11.268Z,2.22
2023-07-09T23:55:15.394Z,2.60
